Time;durP1;ratioP1;P1;durP2;ratioP2;P2;SDS_P1;SDS_P2;PMS_P1;PMS_P2;Temp;Humidity;BMP_temperature;BMP_pressure;BME280_temperature;BME280_humidity;BME280_pressure;Samples;Min_cycle;Max_cycle;Signal;HPM_P1;HPM_P2
2023/06/04 00:00:58;;;;;;;;;;;;;;;21.31;56.34;99769.22;5090547;28;19918;-42
2023/06/04 00:03:24;;;;;;;;;;;;;;;21.14;56.70;99768.69;5090432;28;19970;-41
2023/06/04 00:05:49;;;;;;;;;;;;;;;21.23;55.71;99765.16;5090558;28;19995;-41
2023/06/04 00:08:15;;;;;;;;;;;;;;;21.03;55.63;99768.69;5090640;28;19912;-41
2023/06/04 00:10:40;;;;;;;;;;;;;;;21.01;56.12;99765.44;5090521;28;20363;-40
2023/06/04 00:13:05;;;;;;;;;;;;;;;20.73;56.47;99763.31;5090600;28;19950;-40
2023/06/04 00:15:31;;;;;;;;;;;;;;;21.18;55.58;99759.75;5090504;28;20031;-41
2023/06/04 00:17:56;;;;;;;;;;;;;;;21.31;54.85;99761.09;5091032;28;20010;-40
2023/06/04 00:20:22;;;;;;;;;;;;;;;21.14;55.41;99763.28;5094581;28;19912;-41
2023/06/04 00:22:47;;;;;;;;;;;;;;;21.05;55.46;99752.19;5094492;28;19916;-41
2023/06/04 00:25:12;;;;;;;;;;;;;;;20.83;56.45;99763.31;5094592;28;19962;-41
2023/06/04 00:27:37;;;;;;;;;;;;;;;21.18;55.38;99756.25;5094634;28;19989;-41
2023/06/04 00:30:04;;;;;;;;;;;;;;;21.19;55.62;99757.84;5094565;28;20381;-41
2023/06/04 00:32:29;;;;;;;;;;;;;;;21.31;55.05;99758.38;5094502;28;20002;-41
2023/06/04 00:34:57;;;;;;;;;;;;;;;21.36;56.12;99758.38;5094319;28;20007;-41
2023/06/04 00:37:23;;;;;;;;;;;;;;;21.52;55.04;99761.06;5094313;28;20376;-41
2023/06/04 00:39:48;;;;;;;;;;;;;;;21.35;56.50;99766.75;5094165;28;20007;-41
2023/06/04 00:42:14;;;;;;;;;;;;;;;21.38;56.20;99767.03;5094118;28;19920;-41
2023/06/04 00:44:44;;;;;;;;;;;;;;;20.74;58.25;99764.94;5094291;28;20276;-41
2023/06/04 00:47:10;;;;;;;;;;;;;;;20.90;57.60;99761.13;5093931;28;19927;-41
2023/06/04 00:49:35;;;;;;;;;;;;;;;20.53;58.79;99762.19;5094277;28;19955;-41
2023/06/04 00:52:01;;;;;;;;;;;;;;;20.65;59.14;99764.66;5094066;28;19951;-39
2023/06/04 00:54:26;;;;;;;;;;;;;;;20.09;61.03;99773.44;5094027;28;19921;-39
2023/06/04 00:56:52;;;;;;;;;;;;;;;20.45;60.82;99760.03;5093963;28;19912;-41
2023/06/04 00:59:17;;;;;;;;;;;;;;;20.94;59.07;99761.41;5093921;28;20372;-41
2023/06/04 01:01:48;;;;;;;;;;;;;;;21.09;58.24;99766.78;5093842;28;19920;-41
2023/06/04 01:04:29;;;;;;;;;;;;;;;21.19;57.65;99765.97;5093620;28;19916;-41
2023/06/04 01:06:58;;;;;;;;;;;;;;;20.96;58.82;99770.88;5093722;28;19990;-41
2023/06/04 01:09:24;;;;;;;;;;;;;;;21.17;58.36;99773.53;5093646;28;19962;-41
2023/06/04 01:11:49;;;;;;;;;;;;;;;21.15;58.21;99787.38;5093571;28;19911;-41
2023/06/04 01:14:18;;;;;;;;;;;;;;;21.42;57.50;99786.25;5093854;28;20342;-41
2023/06/04 01:17:01;;;;;;;;;;;;;;;21.53;57.60;99784.34;5093630;28;19913;-41
2023/06/04 01:19:47;;;;;;;;;;;;;;;21.74;56.52;99774.25;5093543;28;20414;-41
2023/06/04 01:22:25;;;;;;;;;;;;;;;21.85;55.67;99775.81;5093373;28;20256;-41
2023/06/04 01:24:55;;;;;;;;;;;;;;;21.90;55.67;99786.66;5093605;28;19912;-41
2023/06/04 01:27:21;;;;;;;;;;;;;;;21.48;56.53;99785.16;5093443;28;19912;-41
2023/06/04 01:29:49;;;;;;;;;;;;;;;21.47;56.88;99778.13;5091864;28;20269;-41
2023/06/04 01:32:15;;;;;;;;;;;;;;;21.57;56.80;99779.97;5093838;28;19923;-41
2023/06/04 01:34:44;;;;;;;;;;;;;;;21.59;56.81;99778.66;5094034;28;19919;-41
2023/06/04 01:37:11;;;;;;;;;;;;;;;21.45;56.70;99786.50;5094256;28;20101;-41
2023/06/04 01:39:36;;;;;;;;;;;;;;;21.71;56.27;99781.03;5094094;28;20360;-41
2023/06/04 01:42:02;;;;;;;;;;;;;;;21.81;56.22;99780.97;5093866;28;19917;-41
2023/06/04 01:44:27;;;;;;;;;;;;;;;21.99;55.87;99778.75;5093638;28;19920;-40
2023/06/04 01:46:52;;;;;;;;;;;;;;;22.09;55.35;99780.63;5093565;28;19916;-40
2023/06/04 01:49:18;;;;;;;;;;;;;;;21.98;55.58;99777.13;5094084;28;20139;-40
2023/06/04 01:51:43;;;;;;;;;;;;;;;21.77;56.15;99779.94;5093621;28;19912;-41
2023/06/04 01:54:08;;;;;;;;;;;;;;;21.97;55.84;99770.91;5093719;28;19912;-41
2023/06/04 01:56:34;;;;;;;;;;;;;;;22.05;55.05;99774.94;5093373;28;19955;-41
2023/06/04 01:59:01;;;;;;;;;;;;;;;22.05;55.08;99781.16;5093338;28;19912;-42
2023/06/04 02:01:26;;;;;;;;;;;;;;;22.09;54.76;99789.53;5093504;28;20360;-41
2023/06/04 02:03:52;;;;;;;;;;;;;;;21.77;56.15;99785.34;5093288;28;19912;-41
2023/06/04 02:06:17;;;;;;;;;;;;;;;21.85;55.92;99790.16;5093361;28;19991;-41
2023/06/04 02:08:43;;;;;;;;;;;;;;;21.17;57.85;99795.19;5093472;28;19966;-41
2023/06/04 02:11:08;;;;;;;;;;;;;;;21.38;58.08;99796.81;5093098;28;20003;-41
2023/06/04 02:13:34;;;;;;;;;;;;;;;21.76;56.78;99785.59;5093372;28;19951;-42
2023/06/04 02:15:59;;;;;;;;;;;;;;;21.83;56.90;99786.94;5093042;28;20346;-42
2023/06/04 02:18:24;;;;;;;;;;;;;;;22.02;56.70;99795.25;5093299;28;20018;-41
2023/06/04 02:20:50;;;;;;;;;;;;;;;22.09;56.64;99797.66;5093142;28;19912;-41
2023/06/04 02:23:17;;;;;;;;;;;;;;;22.22;56.20;99798.97;5093028;28;19978;-42
2023/06/04 02:25:44;;;;;;;;;;;;;;;22.29;56.41;99807.63;5093026;28;19951;-41
2023/06/04 02:28:10;;;;;;;;;;;;;;;22.34;55.85;99813.00;5093036;28;19912;-41
2023/06/04 02:30:35;;;;;;;;;;;;;;;22.49;54.58;99812.13;5092461;28;19931;-41
2023/06/04 02:33:01;;;;;;;;;;;;;;;21.88;56.37;99815.13;5092712;28;20155;-41
2023/06/04 02:35:32;;;;;;;;;;;;;;;21.67;57.44;99820.59;5092737;28;19938;-41
2023/06/04 02:37:57;;;;;;;;;;;;;;;21.86;57.14;99820.81;5092542;28;19973;-41
2023/06/04 02:40:23;;;;;;;;;;;;;;;21.98;56.77;99818.56;5092749;28;19993;-41
2023/06/04 02:42:49;;;;;;;;;;;;;;;21.71;57.20;99818.16;5092544;28;19923;-41
2023/06/04 02:45:14;;;;;;;;;;;;;;;21.77;56.66;99825.16;5092673;28;19916;-41
2023/06/04 02:47:39;;;;;;;;;;;;;;;21.47;57.40;99818.72;5092773;28;19935;-41
2023/06/04 02:50:05;;;;;;;;;;;;;;;21.69;57.51;99823.84;5092642;28;19923;-42
2023/06/04 02:52:31;;;;;;;;;;;;;;;21.80;57.11;99830.84;5092522;28;20334;-42
2023/06/04 02:54:57;;;;;;;;;;;;;;;21.93;56.77;99832.13;5092801;28;20433;-42
2023/06/04 02:57:22;;;;;;;;;;;;;;;21.75;56.48;99821.91;5092422;28;20368;-42
2023/06/04 02:59:47;;;;;;;;;;;;;;;21.66;56.46;99833.28;5092138;28;20350;-42
2023/06/04 03:02:14;;;;;;;;;;;;;;;21.54;57.00;99840.13;5092345;28;19920;-39
2023/06/04 03:04:40;;;;;;;;;;;;;;;21.20;58.30;99837.97;5092206;28;20282;-40
2023/06/04 03:07:07;;;;;;;;;;;;;;;21.28;58.51;99840.09;5092327;28;20425;-40
2023/06/04 03:09:33;;;;;;;;;;;;;;;21.39;58.46;99840.91;5092260;28;20376;-40
2023/06/04 03:12:02;;;;;;;;;;;;;;;21.58;58.04;99843.91;5091991;28;19944;-40
2023/06/04 03:14:32;;;;;;;;;;;;;;;21.69;57.21;99845.50;5091987;28;20382;-40
2023/06/04 03:17:00;;;;;;;;;;;;;;;21.54;58.25;99849.03;5091996;28;19941;-42
2023/06/04 03:19:26;;;;;;;;;;;;;;;21.42;58.23;99853.91;5091649;28;19912;-41
2023/06/04 03:21:52;;;;;;;;;;;;;;;21.36;58.79;99849.56;5091813;28;19916;-41
2023/06/04 03:24:17;;;;;;;;;;;;;;;21.45;58.21;99853.38;5091841;28;19998;-41
2023/06/04 03:26:42;;;;;;;;;;;;;;;21.81;57.14;99853.31;5091945;28;19912;-41
2023/06/04 03:29:08;;;;;;;;;;;;;;;21.60;56.76;99858.78;5091799;28;20063;-42
2023/06/04 03:31:33;;;;;;;;;;;;;;;21.58;57.30;99857.44;5091318;28;20318;-40
2023/06/04 03:33:58;;;;;;;;;;;;;;;21.43;57.89;99869.06;5091740;28;19912;-40
2023/06/04 03:36:31;;;;;;;;;;;;;;;21.23;58.97;99867.19;5091639;28;19915;-40
2023/06/04 03:38:57;;;;;;;;;;;;;;;21.51;58.23;99873.94;5091854;28;19954;-40
2023/06/04 03:41:22;;;;;;;;;;;;;;;21.77;58.38;99861.16;5091670;28;19939;-40
2023/06/04 03:43:47;;;;;;;;;;;;;;;21.98;57.61;99875.47;5091784;28;19912;-40
2023/06/04 03:46:13;;;;;;;;;;;;;;;22.05;57.03;99867.88;5091595;28;20359;-40
2023/06/04 03:48:38;;;;;;;;;;;;;;;22.21;56.70;99874.03;5091413;28;19994;-40
2023/06/04 03:51:03;;;;;;;;;;;;;;;22.24;55.97;99878.91;5091458;28;20372;-40
2023/06/04 03:53:28;;;;;;;;;;;;;;;22.37;55.57;99871.28;5090734;28;19961;-41
2023/06/04 03:55:55;;;;;;;;;;;;;;;22.34;55.74;99877.28;5091200;28;20312;-41
2023/06/04 03:58:21;;;;;;;;;;;;;;;22.18;55.36;99884.59;5091667;28;19916;-41
2023/06/04 04:00:46;;;;;;;;;;;;;;;22.00;56.12;99883.31;5091331;28;20273;-41
2023/06/04 04:03:11;;;;;;;;;;;;;;;22.22;55.31;99891.13;5090967;28;19917;-41
2023/06/04 04:05:37;;;;;;;;;;;;;;;22.18;55.46;99885.44;5091619;28;19928;-41
2023/06/04 04:08:02;;;;;;;;;;;;;;;22.30;54.98;99892.47;5091489;28;19912;-41
2023/06/04 04:10:28;;;;;;;;;;;;;;;22.05;55.90;99896.88;5091017;28;20372;-41
2023/06/04 04:12:54;;;;;;;;;;;;;;;21.85;56.66;99900.44;5091537;28;20118;-41
2023/06/04 04:15:20;;;;;;;;;;;;;;;21.84;56.42;99899.63;5091471;28;20293;-41
2023/06/04 04:17:45;;;;;;;;;;;;;;;21.83;56.21;99908.00;5091356;28;19912;-41
2023/06/04 04:20:11;;;;;;;;;;;;;;;22.08;55.65;99901.72;5091012;28;20450;-41
2023/06/04 04:22:39;;;;;;;;;;;;;;;22.20;55.14;99902.22;5091162;28;19916;-41
2023/06/04 04:25:05;;;;;;;;;;;;;;;22.25;55.57;99910.34;5091188;28;19987;-41
2023/06/04 04:27:31;;;;;;;;;;;;;;;22.41;55.24;99908.41;5091014;28;20435;-41
2023/06/04 04:29:59;;;;;;;;;;;;;;;22.34;55.40;99912.50;5090793;28;19922;-40
2023/06/04 04:32:25;;;;;;;;;;;;;;;22.22;55.37;99912.81;5090845;28;19939;-42
2023/06/04 04:34:54;;;;;;;;;;;;;;;22.32;55.06;99912.78;5093261;28;19946;-41
2023/06/04 04:37:23;;;;;;;;;;;;;;;22.30;55.08;99914.97;5090948;28;19946;-41
2023/06/04 04:39:51;;;;;;;;;;;;;;;22.19;55.74;99924.19;5093580;28;19952;-41
2023/06/04 04:42:17;;;;;;;;;;;;;;;22.26;55.79;99919.31;5090758;28;19923;-40
2023/06/04 04:44:47;;;;;;;;;;;;;;;22.11;56.61;99932.88;5090586;28;20378;-40
2023/06/04 04:47:12;;;;;;;;;;;;;;;22.27;56.22;99926.34;5090588;28;19920;-40
2023/06/04 04:49:37;;;;;;;;;;;;;;;22.57;54.62;99930.03;5091191;28;19912;-41
2023/06/04 04:52:03;;;;;;;;;;;;;;;22.74;54.34;99925.06;5091191;28;19977;-40
2023/06/04 04:54:28;;;;;;;;;;;;;;;22.56;55.15;99915.66;5091078;28;19912;-41
2023/06/04 04:56:53;;;;;;;;;;;;;;;22.33;55.68;99938.81;5090480;28;19916;-41
2023/06/04 04:59:19;;;;;;;;;;;;;;;22.65;54.44;99938.38;5090426;28;20053;-40
2023/06/04 05:01:44;;;;;;;;;;;;;;;22.46;55.51;99929.25;5089922;28;19924;-42
2023/06/04 05:04:09;;;;;;;;;;;;;;;22.82;54.41;99931.78;5091012;28;19963;-40
2023/06/04 05:06:35;;;;;;;;;;;;;;;23.14;53.81;99931.34;5094011;28;20315;-41
2023/06/04 05:09:00;;;;;;;;;;;;;;;23.36;52.59;99932.78;5097592;28;19935;-42
2023/06/04 05:11:25;;;;;;;;;;;;;;;23.24;52.40;99938.59;5094026;28;19966;-41
2023/06/04 05:13:51;;;;;;;;;;;;;;;23.19;52.55;99934.03;5094114;28;19912;-41
2023/06/04 05:16:16;;;;;;;;;;;;;;;23.41;52.75;99940.91;5094128;28;19916;-41
2023/06/04 05:18:44;;;;;;;;;;;;;;;23.55;53.17;99938.34;5094105;28;19933;-41
2023/06/04 05:21:11;;;;;;;;;;;;;;;23.65;51.75;99937.47;5093939;28;19954;-42
2023/06/04 05:23:37;;;;;;;;;;;;;;;23.55;51.87;99941.06;5100136;28;19996;-41
2023/06/04 05:26:03;;;;;;;;;;;;;;;23.27;53.46;99948.09;5099961;28;19916;-41
2023/06/04 05:28:28;;;;;;;;;;;;;;;23.56;52.43;99948.91;5094544;28;19964;-41
2023/06/04 05:30:59;;;;;;;;;;;;;;;22.94;53.44;99951.25;5103780;28;19967;-41
2023/06/04 05:33:27;;;;;;;;;;;;;;;23.39;52.60;99951.25;5093478;28;19919;-41
2023/06/04 05:35:54;;;;;;;;;;;;;;;23.16;53.55;99958.19;5093980;28;20354;-41
2023/06/04 05:38:19;;;;;;;;;;;;;;;23.33;53.34;99957.81;5093975;28;19969;-42
2023/06/04 05:40:45;;;;;;;;;;;;;;;23.88;51.79;99963.09;5093723;28;20104;-42
2023/06/04 05:43:10;;;;;;;;;;;;;;;24.10;51.14;99966.09;5093982;28;19916;-42
2023/06/04 05:45:36;;;;;;;;;;;;;;;24.26;51.15;99974.09;5093855;28;20395;-42
2023/06/04 05:48:01;;;;;;;;;;;;;;;24.46;50.40;99962.16;5093787;28;19961;-41
2023/06/04 05:50:27;;;;;;;;;;;;;;;24.58;50.23;99966.13;5093669;28;20343;-42
2023/06/04 05:52:52;;;;;;;;;;;;;;;24.69;50.01;99974.94;5093842;28;19920;-41
2023/06/04 05:55:18;;;;;;;;;;;;;;;24.78;50.06;99975.94;5093777;28;19913;-42
2023/06/04 05:57:43;;;;;;;;;;;;;;;25.03;49.46;99981.31;5093644;28;19912;-40
2023/06/04 06:00:10;;;;;;;;;;;;;;;25.06;52.49;99988.91;5092788;28;19955;-40
2023/06/04 06:02:35;;;;;;;;;;;;;;;25.31;50.23;99998.66;5092397;28;19947;-40
2023/06/04 06:05:00;;;;;;;;;;;;;;;25.68;49.99;99989.63;5092766;28;20004;-41
2023/06/04 06:07:26;;;;;;;;;;;;;;;25.91;48.69;99996.06;5092680;28;20335;-41
2023/06/04 06:09:52;;;;;;;;;;;;;;;25.60;48.43;99994.91;5092636;28;19942;-41
2023/06/04 06:12:17;;;;;;;;;;;;;;;25.84;47.41;100005.69;5092591;28;19912;-41
2023/06/04 06:14:42;;;;;;;;;;;;;;;25.56;47.30;100000.94;5092735;28;20321;-41
2023/06/04 06:17:08;;;;;;;;;;;;;;;25.25;50.90;100002.56;5091916;28;20351;-41
2023/06/04 06:19:33;;;;;;;;;;;;;;;25.46;48.59;100001.13;5092311;28;19912;-42
2023/06/04 06:21:58;;;;;;;;;;;;;;;25.29;48.53;100000.84;5092308;28;19920;-41
2023/06/04 06:24:24;;;;;;;;;;;;;;;25.20;48.34;100006.13;5092312;28;19912;-40
2023/06/04 06:26:49;;;;;;;;;;;;;;;25.38;48.03;100004.53;5092263;28;19995;-41
2023/06/04 06:29:15;;;;;;;;;;;;;;;24.79;49.22;100012.13;5092274;28;20365;-41
2023/06/04 06:31:40;;;;;;;;;;;;;;;24.55;50.49;100004.78;5092165;28;19999;-41
2023/06/04 06:34:05;;;;;;;;;;;;;;;24.76;49.57;100012.69;5091666;28;20003;-42
2023/06/04 06:36:32;;;;;;;;;;;;;;;24.12;51.69;100009.31;5091463;28;19912;-41
2023/06/04 06:38:57;;;;;;;;;;;;;;;23.74;53.28;100012.63;5091966;28;20078;-41
2023/06/04 06:41:23;;;;;;;;;;;;;;;24.09;52.20;100005.25;5091759;28;20387;-41
2023/06/04 06:43:48;;;;;;;;;;;;;;;24.48;51.48;100012.44;5091414;28;20303;-41
2023/06/04 06:46:13;;;;;;;;;;;;;;;24.56;51.68;100020.03;5091397;28;20388;-41
2023/06/04 06:48:39;;;;;;;;;;;;;;;24.51;51.65;100017.34;5091727;28;19912;-41
2023/06/04 06:51:04;;;;;;;;;;;;;;;24.84;50.94;100009.31;5091316;28;19927;-42
2023/06/04 06:53:29;;;;;;;;;;;;;;;25.20;49.57;100014.28;5091939;28;19912;-41
2023/06/04 06:55:55;;;;;;;;;;;;;;;24.00;52.43;100017.84;5091041;28;19916;-40
2023/06/04 06:58:21;;;;;;;;;;;;;;;23.59;53.79;100026.31;5091741;28;19912;-42
2023/06/04 07:00:47;;;;;;;;;;;;;;;23.97;53.30;100027.41;5092077;28;19920;-41
2023/06/04 07:03:12;;;;;;;;;;;;;;;24.06;53.08;100024.03;5091494;28;19981;-41
2023/06/04 07:05:37;;;;;;;;;;;;;;;24.29;52.51;100011.59;5091490;28;19912;-40
2023/06/04 07:08:03;;;;;;;;;;;;;;;23.25;54.75;100035.25;5091458;28;19999;-40
2023/06/04 07:10:29;;;;;;;;;;;;;;;23.55;55.22;100030.69;5098386;28;19919;-41
2023/06/04 07:12:54;;;;;;;;;;;;;;;23.88;53.67;100025.59;5089001;28;20314;-41
2023/06/04 07:15:20;;;;;;;;;;;;;;;23.11;55.74;100031.50;5091587;28;19961;-41
2023/06/04 07:17:45;;;;;;;;;;;;;;;23.23;55.77;100040.13;5091329;28;19939;-40
2023/06/04 07:20:10;;;;;;;;;;;;;;;23.11;56.67;100047.78;5091230;28;19912;-41
2023/06/04 07:22:36;;;;;;;;;;;;;;;23.57;55.69;100042.91;5090871;28;20287;-40
2023/06/04 07:25:01;;;;;;;;;;;;;;;23.68;55.48;100046.34;5090991;28;19912;-40
2023/06/04 07:27:27;;;;;;;;;;;;;;;23.55;55.88;100050.53;5090004;28;20419;-41
2023/06/04 07:29:52;;;;;;;;;;;;;;;23.55;56.45;100052.41;5088663;28;19924;-41
2023/06/04 07:32:17;;;;;;;;;;;;;;;23.33;57.09;100059.06;5090410;28;19916;-40
2023/06/04 07:34:43;;;;;;;;;;;;;;;23.69;56.13;100050.69;5090104;28;19995;-40
2023/06/04 07:37:09;;;;;;;;;;;;;;;23.69;55.95;100052.59;5090719;28;19912;-40
2023/06/04 07:39:34;;;;;;;;;;;;;;;23.34;56.63;100058.00;5090479;28;19919;-42
2023/06/04 07:42:00;;;;;;;;;;;;;;;22.90;58.85;100066.84;5090609;28;19916;-41
2023/06/04 07:44:25;;;;;;;;;;;;;;;22.36;60.60;100062.13;5090392;28;19916;-40
2023/06/04 07:46:50;;;;;;;;;;;;;;;22.94;60.08;100056.25;5090900;28;19919;-42
2023/06/04 07:49:15;;;;;;;;;;;;;;;23.33;58.39;100064.50;5091063;28;19912;-41
2023/06/04 07:51:41;;;;;;;;;;;;;;;23.13;59.22;100062.72;5090907;28;19912;-41
2023/06/04 07:54:07;;;;;;;;;;;;;;;22.88;59.69;100077.16;5090837;28;19999;-41
2023/06/04 07:56:32;;;;;;;;;;;;;;;22.57;61.11;100069.13;5090650;28;19919;-36
2023/06/04 07:58:57;;;;;;;;;;;;;;;22.68;60.88;100075.34;5090701;28;20557;-37
2023/06/04 08:01:23;;;;;;;;;;;;;;;22.56;61.12;100077.53;5090152;28;20042;-37
2023/06/04 08:03:49;;;;;;;;;;;;;;;22.81;60.96;100072.06;5090373;28;20308;-37
2023/06/04 08:06:14;;;;;;;;;;;;;;;22.84;61.09;100068.75;5090763;28;19991;-36
2023/06/04 08:08:45;;;;;;;;;;;;;;;22.79;61.02;100071.50;5090887;28;19999;-36
2023/06/04 08:11:10;;;;;;;;;;;;;;;23.22;60.59;100074.59;5106753;28;19919;-36
2023/06/04 08:13:35;;;;;;;;;;;;;;;23.20;60.39;100073.25;5109131;28;19920;-36
2023/06/04 08:16:01;;;;;;;;;;;;;;;23.82;58.25;100068.28;5088713;28;19912;-36
2023/06/04 08:18:26;;;;;;;;;;;;;;;23.96;58.01;100068.44;5090118;28;19913;-36
2023/06/04 08:20:51;;;;;;;;;;;;;;;23.44;60.03;100073.41;5090417;28;20384;-36
2023/06/04 08:23:17;;;;;;;;;;;;;;;22.57;62.45;100077.25;5090658;28;20047;-35
2023/06/04 08:25:42;;;;;;;;;;;;;;;22.58;63.39;100078.91;5091188;28;20315;-36
2023/06/04 08:28:07;;;;;;;;;;;;;;;22.68;62.19;100072.63;5090616;28;20372;-36
2023/06/04 08:30:35;;;;;;;;;;;;;;;23.01;62.18;100073.84;5090899;28;19924;-36
2023/06/04 08:33:01;;;;;;;;;;;;;;;23.05;62.24;100068.72;5090660;28;19916;-36
2023/06/04 08:35:26;;;;;;;;;;;;;;;22.96;61.38;100070.34;5090943;28;19969;-36
2023/06/04 08:37:52;;;;;;;;;;;;;;;23.00;60.96;100080.38;5090698;28;19919;-35
2023/06/04 08:40:17;;;;;;;;;;;;;;;23.11;60.48;100080.34;5093075;28;20010;-36
2023/06/04 08:42:44;;;;;;;;;;;;;;;22.77;60.10;100089.13;5094723;28;19923;-36
2023/06/04 08:45:11;;;;;;;;;;;;;;;22.12;62.66;100070.78;5094952;28;19912;-36
2023/06/04 08:47:37;;;;;;;;;;;;;;;22.43;60.42;100085.16;5094767;28;19943;-35
2023/06/04 08:50:02;;;;;;;;;;;;;;;22.10;61.53;100083.81;5094856;28;20012;-35
2023/06/04 08:52:27;;;;;;;;;;;;;;;22.20;63.47;100077.56;5094469;28;20352;-35
2023/06/04 08:54:54;;;;;;;;;;;;;;;22.93;61.80;100077.16;5094130;28;19912;-35
2023/06/04 08:57:20;;;;;;;;;;;;;;;22.52;63.00;100082.69;5093981;28;19916;-37
2023/06/04 08:59:46;;;;;;;;;;;;;;;22.35;63.71;100088.44;5093909;28;20002;-36
2023/06/04 09:02:12;;;;;;;;;;;;;;;22.97;62.66;100085.56;5093846;28;19920;-36
2023/06/04 09:04:39;;;;;;;;;;;;;;;22.80;62.70;100091.31;5094247;28;19919;-37
2023/06/04 09:07:05;;;;;;;;;;;;;;;22.36;62.95;100087.34;5094139;28;19981;-36
2023/06/04 09:09:31;;;;;;;;;;;;;;;22.49;62.93;100087.88;5095507;28;20028;-36
2023/06/04 09:11:57;;;;;;;;;;;;;;;22.80;61.45;100080.47;5114162;28;19947;-36
2023/06/04 09:14:22;;;;;;;;;;;;;;;22.76;58.47;100093.75;5114142;28;20002;-36
2023/06/04 09:16:48;;;;;;;;;;;;;;;22.81;59.42;100082.09;5113898;28;19912;-36
2023/06/04 09:19:14;;;;;;;;;;;;;;;23.45;57.64;100088.59;5114078;28;20347;-38
2023/06/04 09:21:50;;;;;;;;;;;;;;;23.37;57.82;100087.28;5113815;28;19912;-36
2023/06/04 09:24:15;;;;;;;;;;;;;;;23.59;58.11;100088.81;5114353;28;19919;-36
2023/06/04 09:26:40;;;;;;;;;;;;;;;24.20;55.78;100076.66;5113635;28;19912;-36
2023/06/04 09:29:06;;;;;;;;;;;;;;;24.05;55.87;100087.69;5113674;28;19938;-37
2023/06/04 09:31:36;;;;;;;;;;;;;;;23.54;57.45;100088.81;5109406;28;19955;-35
2023/06/04 09:34:02;;;;;;;;;;;;;;;23.85;57.70;100080.47;5093746;28;20276;-36
2023/06/04 09:36:31;;;;;;;;;;;;;;;24.13;55.72;100084.34;5093515;28;20328;-36
2023/06/04 09:38:56;;;;;;;;;;;;;;;23.66;56.98;100077.59;5093424;28;20051;-37
2023/06/04 09:41:21;;;;;;;;;;;;;;;23.93;55.72;100075.28;5093178;28;20010;-37
2023/06/04 09:43:47;;;;;;;;;;;;;;;24.04;55.82;100072.44;5093625;28;20031;-36
2023/06/04 09:46:13;;;;;;;;;;;;;;;24.77;53.75;100080.44;5092212;28;19938;-37
2023/06/04 09:48:39;;;;;;;;;;;;;;;24.40;54.31;100081.88;5092796;28;20434;-37
2023/06/04 09:51:08;;;;;;;;;;;;;;;24.35;53.53;100081.13;5091606;28;20232;-35
2023/06/04 09:53:33;;;;;;;;;;;;;;;24.70;52.52;100088.13;5091756;28;19916;-37
2023/06/04 09:55:59;;;;;;;;;;;;;;;24.25;54.70;100081.22;5088061;28;19917;-37
2023/06/04 09:58:28;;;;;;;;;;;;;;;24.74;51.87;100083.72;5092523;28;19923;-37
2023/06/04 10:00:57;;;;;;;;;;;;;;;24.23;54.19;100083.44;5092908;28;20471;-36
2023/06/04 10:03:30;;;;;;;;;;;;;;;24.84;51.03;100082.81;5091239;28;19916;-37
2023/06/04 10:05:59;;;;;;;;;;;;;;;24.65;50.71;100087.38;5092949;28;19931;-37
2023/06/04 10:08:25;;;;;;;;;;;;;;;24.03;53.35;100085.25;5089821;28;19916;-36
2023/06/04 10:10:52;;;;;;;;;;;;;;;24.74;52.16;100081.00;5096383;28;19912;-36
2023/06/04 10:13:18;;;;;;;;;;;;;;;25.05;50.43;100085.28;5092154;28;20376;-37
2023/06/04 10:15:45;;;;;;;;;;;;;;;24.63;51.57;100084.94;5092902;28;19949;-37
2023/06/04 10:18:10;;;;;;;;;;;;;;;24.19;51.38;100075.03;5091956;28;19912;-37
2023/06/04 10:20:36;;;;;;;;;;;;;;;24.05;49.79;100074.88;5092055;28;19922;-36
2023/06/04 10:23:02;;;;;;;;;;;;;;;24.44;49.26;100075.88;5091775;28;20007;-37
2023/06/04 10:25:27;;;;;;;;;;;;;;;25.00;47.42;100063.56;5091344;28;19977;-37
2023/06/04 10:27:53;;;;;;;;;;;;;;;24.73;45.48;100073.13;5090456;28;19912;-37
2023/06/04 10:30:18;;;;;;;;;;;;;;;24.33;47.01;100072.44;5089698;28;19946;-37
2023/06/04 10:32:43;;;;;;;;;;;;;;;25.06;46.77;100065.13;5091141;28;20419;-37
2023/06/04 10:35:09;;;;;;;;;;;;;;;24.63;47.78;100079.50;5090951;28;19928;-36
2023/06/04 10:37:34;;;;;;;;;;;;;;;24.25;49.72;100067.63;5092012;28;20021;-36
2023/06/04 10:40:00;;;;;;;;;;;;;;;25.20;43.22;100059.78;5091941;28;19982;-36
2023/06/04 10:42:25;;;;;;;;;;;;;;;25.45;45.52;100066.78;5089335;28;20032;-36
2023/06/04 10:44:52;;;;;;;;;;;;;;;25.81;44.02;100074.44;5092380;28;19932;-36
2023/06/04 10:47:27;;;;;;;;;;;;;;;25.69;43.64;100064.78;5092050;28;19999;-36
2023/06/04 10:49:53;;;;;;;;;;;;;;;25.74;42.44;100050.25;5090347;28;19954;-36
2023/06/04 10:52:18;;;;;;;;;;;;;;;25.49;47.12;100073.28;5091712;28;19919;-36
2023/06/04 10:54:45;;;;;;;;;;;;;;;25.73;49.06;100059.56;5091974;28;20013;-34
2023/06/04 10:57:15;;;;;;;;;;;;;;;26.69;48.60;100059.00;5091507;28;19970;-36
2023/06/04 10:59:40;;;;;;;;;;;;;;;26.03;50.23;100060.19;5092072;28;19926;-36
2023/06/04 11:02:07;;;;;;;;;;;;;;;26.23;48.94;100057.09;5091714;28;20290;-37
2023/06/04 11:04:32;;;;;;;;;;;;;;;26.97;49.08;100055.44;5091796;28;19918;-37
2023/06/04 11:07:08;;;;;;;;;;;;;;;27.40;48.36;100052.34;5091322;28;19912;-35
2023/06/04 11:09:34;;;;;;;;;;;;;;;27.34;48.29;100056.28;5089858;28;19912;-36
2023/06/04 11:12:00;;;;;;;;;;;;;;;27.73;46.19;100057.56;5091851;28;19933;-36
2023/06/04 11:14:25;;;;;;;;;;;;;;;27.40;42.95;100044.94;5088690;28;19913;-37
2023/06/04 11:16:51;;;;;;;;;;;;;;;26.24;43.53;100052.47;5091536;28;19916;-36
2023/06/04 11:19:16;;;;;;;;;;;;;;;25.46;46.60;100060.25;5091758;28;19963;-35
2023/06/04 11:21:41;;;;;;;;;;;;;;;25.87;45.78;100049.50;5091693;28;20375;-37
2023/06/04 11:24:07;;;;;;;;;;;;;;;26.32;48.21;100055.28;5092149;28;20393;-36
2023/06/04 11:26:33;;;;;;;;;;;;;;;25.72;49.15;100053.31;5091933;28;20424;-35
2023/06/04 11:28:59;;;;;;;;;;;;;;;26.36;48.36;100051.97;5091414;28;19969;-36
2023/06/04 11:31:24;;;;;;;;;;;;;;;27.03;43.09;100063.19;5091948;28;20017;-36
2023/06/04 11:33:50;;;;;;;;;;;;;;;26.74;45.95;100060.81;5092450;28;19912;-35
2023/06/04 11:36:26;;;;;;;;;;;;;;;27.04;45.46;100058.56;5092081;28;20300;-35
2023/06/04 11:39:02;;;;;;;;;;;;;;;27.34;44.77;100057.09;5091676;28;19919;-36
2023/06/04 11:41:28;;;;;;;;;;;;;;;27.75;43.19;100063.53;5091821;28;19935;-35
2023/06/04 11:43:53;;;;;;;;;;;;;;;27.33;43.39;100055.47;5091577;28;20014;-35
2023/06/04 11:46:19;;;;;;;;;;;;;;;27.35;44.75;100047.78;5091719;28;20355;-36
2023/06/04 11:48:44;;;;;;;;;;;;;;;27.64;42.46;100054.75;5091482;28;20360;-36
2023/06/04 11:51:10;;;;;;;;;;;;;;;28.30;40.02;100055.03;5091312;28;20314;-35
2023/06/04 11:53:36;;;;;;;;;;;;;;;28.64;38.67;100048.91;5091547;28;19912;-36
2023/06/04 11:56:02;;;;;;;;;;;;;;;29.13;38.37;100048.06;5091453;28;19912;-35
2023/06/04 11:58:27;;;;;;;;;;;;;;;28.00;42.18;100051.97;5091576;28;19974;-36
2023/06/04 12:00:54;;;;;;;;;;;;;;;27.22;44.23;100049.41;5090959;28;19984;-36
2023/06/04 12:03:30;;;;;;;;;;;;;;;27.64;41.34;100038.34;5091236;28;19916;-36
2023/06/04 12:05:55;;;;;;;;;;;;;;;27.90;40.75;100049.50;5091587;28;19970;-37
2023/06/04 12:08:20;;;;;;;;;;;;;;;27.97;39.65;100041.69;5091404;28;19916;-37
2023/06/04 12:10:46;;;;;;;;;;;;;;;27.15;44.32;100053.66;5103326;28;19915;-37
2023/06/04 12:13:11;;;;;;;;;;;;;;;27.47;44.30;100053.53;5111683;28;19919;-36
2023/06/04 12:15:36;;;;;;;;;;;;;;;27.00;45.02;100058.34;5115149;28;19951;-36
2023/06/04 12:18:04;;;;;;;;;;;;;;;27.33;44.79;100069.13;5115831;28;19927;-35
2023/06/04 12:20:36;;;;;;;;;;;;;;;26.87;45.35;100059.19;5115776;28;19918;-36
2023/06/04 12:23:02;;;;;;;;;;;;;;;25.97;48.06;100053.19;5115430;28;20418;-36
2023/06/04 12:25:28;;;;;;;;;;;;;;;27.54;44.86;100060.47;5115942;28;19912;-36
2023/06/04 12:27:54;;;;;;;;;;;;;;;27.25;44.93;100053.50;5115506;28;20339;-36
2023/06/04 12:30:19;;;;;;;;;;;;;;;26.77;46.21;100071.13;5115538;28;19945;-36
2023/06/04 12:32:45;;;;;;;;;;;;;;;27.01;45.63;100064.63;5115446;28;19916;-35
2023/06/04 12:35:10;;;;;;;;;;;;;;;27.29;44.13;100055.28;5115210;28;19911;-37